Time;durP1;ratioP1;P1;durP2;ratioP2;P2;SDS_P1;SDS_P2;PMS_P1;PMS_P2;Temp;Humidity;BMP_temperature;BMP_pressure;BME280_temperature;BME280_humidity;BME280_pressure;Samples;Min_cycle;Max_cycle;Signal;HPM_P1;HPM_P2
2021/05/10 00:01:34;;;;;;;1.70;1.60;;;;;;;19.51;59.41;96491.31;5055599;28;20656;-66
2021/05/10 00:04:01;;;;;;;1.60;1.50;;;;;;;19.21;59.83;96454.13;5058368;28;20203;-67
2021/05/10 00:06:27;;;;;;;1.60;1.50;;;;;;;19.90;59.65;96562.69;5068024;28;20250;-66
2021/05/10 00:08:55;;;;;;;1.60;1.50;;;;;;;19.37;59.79;96469.81;5051362;28;20277;-66
2021/05/10 00:11:21;;;;;;;1.60;1.50;;;;;;;19.75;59.90;96542.81;5038651;28;20253;-67
2021/05/10 00:13:50;;;;;;;1.60;1.50;;;;;;;19.90;59.61;96566.06;5068655;28;20215;-65
2021/05/10 00:16:16;;;;;;;1.50;1.40;;;;;;;19.37;59.59;96474.91;5063223;28;20239;-64
2021/05/10 00:18:42;;;;;;;1.50;1.40;;;;;;;19.88;59.56;96564.31;5061834;28;20709;-66
2021/05/10 00:21:09;;;;;;;1.63;1.50;;;;;;;19.75;59.72;96549.63;5051310;28;20302;-66
2021/05/10 00:23:35;;;;;;;1.70;1.60;;;;;;;19.73;59.65;96553.81;5051547;28;20496;-66
2021/05/10 00:26:13;;;;;;;1.50;1.40;;;;;;;19.72;59.63;96558.03;5071650;28;20196;-66
2021/05/10 00:28:39;;;;;;;1.60;1.50;;;;;;;19.84;59.71;96578.69;5053552;28;20796;-67
2021/05/10 00:31:05;;;;;;;1.60;1.50;;;;;;;19.84;59.50;96581.22;5074156;28;20232;-67
2021/05/10 00:33:32;;;;;;;1.50;1.40;;;;;;;19.79;60.65;96582.84;5072268;28;20251;-66
2021/05/10 00:35:58;;;;;;;1.60;1.50;;;;;;;19.46;59.77;96520.97;5073457;28;20671;-67
2021/05/10 00:38:24;;;;;;;1.50;1.40;;;;;;;19.81;59.80;96580.34;5074759;28;20253;-67
2021/05/10 00:40:50;;;;;;;1.60;1.50;;;;;;;19.73;59.69;96571.66;5074859;28;20617;-66
2021/05/10 00:43:16;;;;;;;1.70;1.60;;;;;;;19.64;59.63;96553.63;5071090;28;20629;-66
2021/05/10 00:45:42;;;;;;;1.50;1.40;;;;;;;19.65;60.00;96562.97;5071682;28;20576;-66
2021/05/10 00:48:08;;;;;;;1.50;1.40;;;;;;;19.69;59.88;96580.91;5064244;28;20709;-67
2021/05/10 00:50:34;;;;;;;1.50;1.40;;;;;;;19.74;60.22;96589.53;5073655;28;20288;-67
2021/05/10 00:53:00;;;;;;;1.60;1.50;;;;;;;19.18;59.85;96487.16;5073266;28;20658;-66
2021/05/10 00:55:26;;;;;;;1.37;1.30;;;;;;;19.72;59.99;96592.88;5059134;28;20286;-66
2021/05/10 00:58:02;;;;;;;1.60;1.50;;;;;;;19.23;60.14;96511.06;5055358;28;20692;-66
2021/05/10 01:00:30;;;;;;;1.50;1.40;;;;;;;19.17;60.21;96514.34;5055200;28;20255;-66
2021/05/10 01:02:56;;;;;;;1.57;1.47;;;;;;;19.61;60.23;96587.56;5054170;28;20192;-66
2021/05/10 01:05:23;;;;;;;1.70;1.60;;;;;;;19.55;60.32;96573.81;5037553;28;20232;-66
2021/05/10 01:07:49;;;;;;;1.57;1.47;;;;;;;19.53;60.30;96578.88;5044476;28;20669;-66
2021/05/10 01:10:16;;;;;;;1.50;1.40;;;;;;;19.53;60.48;96567.81;5072542;28;20762;-64
2021/05/10 01:12:42;;;;;;;1.80;1.70;;;;;;;19.40;60.36;96551.41;5059486;28;20256;-66
2021/05/10 01:15:13;;;;;;;1.50;1.40;;;;;;;18.23;60.18;96348.38;5097719;22;20228;-68
2021/05/10 01:17:40;;;;;;;1.40;1.30;;;;;;;19.64;60.28;96587.63;5051127;28;20197;-68
2021/05/10 01:20:10;;;;;;;1.33;1.30;;;;;;;19.24;60.31;96521.28;5071384;28;20205;-68
2021/05/10 01:22:47;;;;;;;1.50;1.40;;;;;;;18.41;60.60;96375.13;5071079;28;20284;-69
2021/05/10 01:25:15;;;;;;;1.57;1.47;;;;;;;18.21;60.44;96351.72;5071726;28;20557;-69
2021/05/10 01:27:42;;;;;;;1.50;1.40;;;;;;;18.40;60.44;96425.13;5062639;28;20573;-68
2021/05/10 01:30:10;;;;;;;1.40;1.30;;;;;;;19.62;60.61;96591.81;5067149;28;20234;-68
2021/05/10 01:32:36;;;;;;;1.50;1.40;;;;;;;16.75;60.20;96165.13;5063498;28;20252;-68
2021/05/10 01:35:06;;;;;;;1.43;1.33;;;;;;;19.61;60.59;96594.34;5067020;28;20224;-68
2021/05/10 01:37:32;;;;;;;1.50;1.40;;;;;;;18.18;60.36;96346.56;5061436;28;20227;-68
2021/05/10 01:39:59;;;;;;;1.80;1.70;;;;;;;19.60;60.58;96584.97;5065685;28;20204;-68
2021/05/10 01:42:25;;;;;;;1.60;1.50;;;;;;;19.60;60.69;96583.25;5061476;28;20662;-68
2021/05/10 01:44:52;;;;;;;1.40;1.30;;;;;;;19.60;60.69;96577.31;5065044;28;20197;-68
2021/05/10 01:47:18;;;;;;;1.70;1.60;;;;;;;19.60;60.72;96579.88;5061657;28;20624;-68
2021/05/10 01:49:48;;;;;;;1.70;1.60;;;;;;;18.21;60.57;96357.66;5062594;28;20674;-68
2021/05/10 01:52:14;;;;;;;1.43;1.33;;;;;;;19.59;60.88;96583.22;5067654;28;20277;-69
2021/05/10 01:54:46;;;;;;;1.50;1.40;;;;;;;19.58;60.69;96584.94;5058601;28;20200;-68
2021/05/10 01:57:12;;;;;;;1.50;1.40;;;;;;;18.48;60.77;96390.56;5065560;28;20196;-69
2021/05/10 01:59:38;;;;;;;1.50;1.40;;;;;;;19.59;60.43;96581.56;5060535;28;20765;-69
2021/05/10 02:02:05;;;;;;;1.40;1.30;;;;;;;19.58;60.86;96574.75;5064797;28;20290;-68
2021/05/10 02:05:07;;;;;;;1.67;1.57;;;;;;;19.58;60.88;96581.53;5063029;28;20208;-69
2021/05/10 02:07:35;;;;;;;1.50;1.40;;;;;;;19.57;60.95;96585.75;5060648;28;20275;-69
2021/05/10 02:10:01;;;;;;;1.50;1.40;;;;;;;18.30;60.75;96366.34;5057918;28;20249;-69
2021/05/10 02:12:27;;;;;;;1.57;1.47;;;;;;;17.78;60.85;96275.25;5059083;28;20228;-68
2021/05/10 02:14:54;;;;;;;1.63;1.53;;;;;;;19.56;60.77;96572.97;5065451;28;20196;-68
2021/05/10 02:17:20;;;;;;;1.63;1.53;;;;;;;19.55;60.60;96574.69;5067058;28;20231;-69
2021/05/10 02:19:46;;;;;;;1.60;1.50;;;;;;;19.56;60.94;96580.63;5066556;28;20227;-69
2021/05/10 02:22:12;;;;;;;1.37;1.33;;;;;;;19.56;61.07;96585.72;5065316;28;20224;-69
2021/05/10 02:24:38;;;;;;;1.80;1.70;;;;;;;19.56;60.99;96591.69;5065575;28;20670;-69
2021/05/10 02:27:05;;;;;;;1.60;1.50;;;;;;;19.56;61.01;96599.31;5060784;28;20254;-69
2021/05/10 02:29:31;;;;;;;1.50;1.40;;;;;;;19.23;61.15;96550.13;5062058;28;20229;-69
2021/05/10 02:31:57;;;;;;;1.80;1.60;;;;;;;19.56;61.41;96611.19;5067552;28;20628;-69
2021/05/10 02:34:23;;;;;;;1.60;1.50;;;;;;;19.56;61.10;96601.88;5066749;28;20208;-69
2021/05/10 02:36:50;;;;;;;1.60;1.50;;;;;;;19.01;60.98;96498.69;5056195;28;20322;-69
2021/05/10 02:39:16;;;;;;;1.60;1.50;;;;;;;19.57;61.00;96595.94;5065060;28;20238;-68
2021/05/10 02:41:42;;;;;;;1.63;1.50;;;;;;;19.25;60.96;96545.94;5064765;28;20344;-68
2021/05/10 02:44:08;;;;;;;1.63;1.53;;;;;;;19.24;61.10;96533.13;5060292;28;20192;-68
2021/05/10 02:46:34;;;;;;;1.63;1.53;;;;;;;19.56;60.38;96594.22;5058695;28;20627;-68
2021/05/10 02:49:01;;;;;;;1.70;1.60;;;;;;;19.55;61.07;96584.00;5059907;28;20204;-69
2021/05/10 02:51:27;;;;;;;1.63;1.53;;;;;;;19.56;61.44;96591.69;5063170;28;20196;-69
2021/05/10 02:53:53;;;;;;;1.40;1.40;;;;;;;18.33;61.19;96384.22;5065772;28;20315;-69
2021/05/10 02:56:19;;;;;;;1.60;1.50;;;;;;;19.56;61.02;96593.34;5040619;28;20244;-68
2021/05/10 02:58:45;;;;;;;1.50;1.40;;;;;;;19.56;60.85;96593.34;5056149;28;20208;-69
2021/05/10 03:01:11;;;;;;;1.30;1.30;;;;;;;19.55;61.34;96591.66;5063796;28;20287;-69
2021/05/10 03:03:37;;;;;;;1.60;1.50;;;;;;;19.55;61.34;96586.56;5065475;28;20228;-68
2021/05/10 03:06:04;;;;;;;1.50;1.40;;;;;;;19.54;60.94;96598.41;5064135;28;20220;-69
2021/05/10 03:08:30;;;;;;;1.50;1.40;;;;;;;19.54;61.06;96600.13;5064910;28;20231;-69
2021/05/10 03:10:56;;;;;;;1.50;1.40;;;;;;;19.54;61.28;96595.88;5065650;28;20193;-69
2021/05/10 03:13:22;;;;;;;1.40;1.30;;;;;;;19.53;61.09;96591.63;5054035;28;20248;-69
2021/05/10 03:15:48;;;;;;;1.60;1.50;;;;;;;18.54;61.04;96412.72;5061049;28;20759;-68
2021/05/10 03:18:14;;;;;;;1.60;1.50;;;;;;;19.54;61.22;96585.69;5064045;28;20206;-70
2021/05/10 03:20:40;;;;;;;1.70;1.60;;;;;;;19.52;60.94;96584.81;5059953;28;20232;-69
2021/05/10 03:23:06;;;;;;;1.60;1.50;;;;;;;19.52;61.29;96592.44;5059557;28;20634;-69
2021/05/10 03:25:32;;;;;;;1.50;1.40;;;;;;;19.52;61.14;96589.03;5058016;28;20323;-69
2021/05/10 03:27:58;;;;;;;1.60;1.50;;;;;;;19.52;61.46;96596.66;5060310;28;20670;-69
2021/05/10 03:30:25;;;;;;;1.60;1.50;;;;;;;19.52;61.33;96596.66;5060750;28;20234;-69
2021/05/10 03:32:51;;;;;;;1.60;1.50;;;;;;;18.24;61.17;96392.50;5058185;28;20263;-69
2021/05/10 03:35:18;;;;;;;1.50;1.40;;;;;;;19.51;61.24;96600.91;5045949;28;20216;-69
2021/05/10 03:37:44;;;;;;;1.77;1.50;;;;;;;19.51;61.33;96612.81;5059942;28;20201;-68
2021/05/10 03:40:15;;;;;;;1.67;1.57;;;;;;;19.50;61.42;96616.16;5061617;28;20596;-68
2021/05/10 03:42:41;;;;;;;1.67;1.57;;;;;;;19.51;61.30;96618.75;5066353;28;20196;-69
2021/05/10 03:45:12;;;;;;;1.73;1.63;;;;;;;19.51;61.44;96620.44;5056179;28;20739;-69
2021/05/10 03:47:41;;;;;;;1.50;1.40;;;;;;;19.52;61.08;96627.25;5059439;28;20204;-69
2021/05/10 03:50:10;;;;;;;1.50;1.40;;;;;;;19.51;61.43;96621.28;5059137;28;20228;-69
2021/05/10 03:52:37;;;;;;;1.57;1.47;;;;;;;19.51;62.09;96626.38;5056827;28;20259;-68
2021/05/10 03:55:04;;;;;;;1.60;1.50;;;;;;;19.51;62.18;96733.41;5062144;28;20239;-69
2021/05/10 03:57:30;;;;;;;1.60;1.50;;;;;;;19.51;62.10;96623.84;5064223;28;20242;-69
2021/05/10 03:59:56;;;;;;;2.97;1.50;;;;;;;19.51;62.03;96623.84;5055458;28;20232;-69
2021/05/10 04:02:23;;;;;;;1.40;1.30;;;;;;;19.51;61.84;96626.38;5058779;28;20713;-69
2021/05/10 04:05:00;;;;;;;1.70;1.50;;;;;;;19.51;61.91;96628.09;5060331;28;20197;-69
2021/05/10 04:15:26;;;;;;;1.60;1.50;;;;;;;17.44;61.27;96267.66;5047681;28;20326;-68
2021/05/10 04:17:52;;;;;;;1.53;1.43;;;;;;;19.50;61.91;96626.34;5051903;28;20204;-68
2021/05/10 04:20:19;;;;;;;1.50;1.40;;;;;;;19.50;61.68;96619.56;5063398;28;20288;-69
2021/05/10 04:22:45;;;;;;;2.10;1.70;;;;;;;19.50;61.68;96624.66;5063362;28;20207;-68
2021/05/10 04:25:11;;;;;;;1.60;1.50;;;;;;;19.50;61.86;96628.91;5062914;28;20666;-68
2021/05/10 04:27:37;;;;;;;1.63;1.53;;;;;;;19.50;61.50;96627.22;5048975;28;20204;-68
2021/05/10 04:30:04;;;;;;;1.57;1.47;;;;;;;19.50;61.76;96621.25;5062015;28;20283;-68
2021/05/10 04:32:30;;;;;;;1.50;1.40;;;;;;;19.50;61.60;96621.25;5062365;28;20223;-68
2021/05/10 04:34:58;;;;;;;1.53;1.43;;;;;;;19.50;61.65;96618.69;5055245;28;20250;-68
2021/05/10 04:37:24;;;;;;;1.40;1.30;;;;;;;18.98;61.75;96526.63;5061283;28;20236;-68
2021/05/10 04:39:50;;;;;;;1.60;1.50;;;;;;;19.51;61.63;96613.63;5054416;28;20223;-68
2021/05/10 04:42:16;;;;;;;1.60;1.50;;;;;;;16.22;61.37;96047.06;5060708;28;20298;-67
2021/05/10 04:44:42;;;;;;;1.67;1.57;;;;;;;19.15;61.55;96553.31;5063200;28;20228;-67
2021/05/10 04:47:08;;;;;;;1.50;1.40;;;;;;;19.52;61.57;96624.69;5061849;28;20301;-66
2021/05/10 04:49:34;;;;;;;1.40;1.30;;;;;;;19.52;61.91;96628.13;5064067;28;20203;-67
2021/05/10 04:52:00;;;;;;;1.70;1.60;;;;;;;18.32;61.34;96429.13;5061249;28;20669;-67
2021/05/10 04:54:29;;;;;;;1.60;1.50;;;;;;;19.52;62.08;96633.22;5058434;28;20247;-73
2021/05/10 04:56:55;;;;;;;1.50;1.40;;;;;;;19.53;62.00;96634.06;5054949;28;20221;-66
2021/05/10 04:59:21;;;;;;;2.10;2.00;;;;;;;19.53;61.71;96636.59;5059165;28;20700;-66
2021/05/10 05:01:48;;;;;;;6.57;2.13;;;;;;;19.53;61.80;96634.94;5059377;28;20260;-66
2021/05/10 05:04:16;;;;;;;5.63;2.00;;;;;;;16.99;61.84;96182.69;5059815;28;20709;-66
2021/05/10 05:06:42;;;;;;;2.67;1.97;;;;;;;19.06;62.07;96558.19;5059322;28;20240;-66
2021/05/10 05:09:08;;;;;;;2.73;2.13;;;;;;;19.53;62.11;96640.03;5053560;28;20801;-66
2021/05/10 05:11:34;;;;;;;2.10;1.80;;;;;;;19.55;62.06;96637.50;5065762;28;20251;-66
2021/05/10 05:14:00;;;;;;;4.13;1.83;;;;;;;19.54;62.06;96640.91;5056400;28;20221;-66
2021/05/10 05:16:26;;;;;;;4.83;1.97;;;;;;;19.55;62.17;96646.03;5057629;28;20240;-66
2021/05/10 05:18:53;;;;;;;1.70;1.60;;;;;;;19.54;62.13;96657.03;5059837;28;20228;-66
2021/05/10 05:21:19;;;;;;;3.63;2.07;;;;;;;19.57;61.94;96656.25;5061819;28;20204;-66
2021/05/10 05:23:45;;;;;;;4.30;2.10;;;;;;;19.57;61.83;96662.19;5058919;28;20215;-65
2021/05/10 05:26:11;;;;;;;4.23;1.90;;;;;;;17.83;62.11;96398.22;5060428;28;20296;-66
2021/05/10 05:28:37;;;;;;;2.23;2.03;;;;;;;19.57;61.68;96672.41;5068174;28;20200;-66
2021/05/10 05:31:05;;;;;;;3.50;1.70;;;;;;;19.13;61.80;96595.72;5071826;28;20750;-66
2021/05/10 05:33:31;;;;;;;3.63;2.00;;;;;;;19.58;61.77;96671.59;5057450;28;20271;-66
2021/05/10 05:35:57;;;;;;;1.83;1.67;;;;;;;19.38;61.80;96629.47;5054995;28;20308;-67
2021/05/10 05:38:24;;;;;;;4.10;1.80;;;;;;;19.60;61.88;96671.63;5057662;28;20220;-66
2021/05/10 05:40:50;;;;;;;2.70;1.83;;;;;;;19.60;61.84;96674.16;5062081;28;20228;-66
2021/05/10 05:43:16;;;;;;;4.63;1.97;;;;;;;19.61;61.73;96676.75;5056924;28;20196;-66
2021/05/10 05:45:42;;;;;;;6.03;1.67;;;;;;;19.61;61.81;96683.53;5055044;28;20255;-66
2021/05/10 05:48:10;;;;;;;4.33;2.23;;;;;;;19.60;61.76;96687.75;5056621;28;20674;-66
2021/05/10 05:50:36;;;;;;;5.63;1.90;;;;;;;19.60;61.75;96685.22;5060429;28;20208;-66
2021/05/10 05:53:03;;;;;;;2.37;1.83;;;;;;;19.17;61.81;96622.97;5051431;28;20216;-66
2021/05/10 05:55:29;;;;;;;2.00;1.80;;;;;;;19.62;61.74;96700.53;5066416;28;20224;-66
2021/05/10 05:57:57;;;;;;;1.73;1.63;;;;;;;19.62;61.78;96713.28;5056545;28;20577;-66
2021/05/10 06:00:23;;;;;;;2.67;2.10;;;;;;;19.61;61.58;96701.38;5051992;28;20652;-66
2021/05/10 06:02:49;;;;;;;4.00;1.97;;;;;;;19.18;62.08;96628.09;5050551;28;20193;-66
2021/05/10 06:05:15;;;;;;;4.03;2.00;;;;;;;16.15;61.68;96121.22;5064149;28;20643;-66
2021/05/10 06:07:48;;;;;;;2.67;1.80;;;;;;;18.91;61.69;96642.69;5063931;28;20197;-67
2021/05/10 06:10:18;;;;;;;2.77;1.70;;;;;;;16.36;61.51;96189.38;5050369;28;20284;-67
2021/05/10 06:12:46;;;;;;;2.03;1.77;;;;;;;19.59;61.78;96701.34;5059624;28;20306;-66
2021/05/10 06:15:13;;;;;;;3.90;1.90;;;;;;;19.37;61.72;96660.88;5058683;28;20283;-67
2021/05/10 06:17:39;;;;;;;2.50;2.00;;;;;;;19.13;61.80;96626.28;5054619;28;20283;-67
2021/05/10 06:20:06;;;;;;;4.67;2.10;;;;;;;19.59;61.69;96711.53;5058900;28;20662;-67
2021/05/10 06:22:32;;;;;;;4.00;1.80;;;;;;;19.60;61.74;96712.41;5052454;28;20225;-67
2021/05/10 06:25:00;;;;;;;3.53;1.83;;;;;;;18.78;62.27;96577.03;5065777;28;20197;-66
2021/05/10 06:27:26;;;;;;;3.53;1.80;;;;;;;18.83;61.64;96646.72;5038732;28;20232;-66
2021/05/10 06:29:53;;;;;;;3.73;1.90;;;;;;;19.58;62.42;96722.56;5053789;28;20840;-67
2021/05/10 06:32:19;;;;;;;3.40;2.10;;;;;;;19.46;62.06;96695.91;5064250;28;20196;-66
2021/05/10 06:34:47;;;;;;;5.27;1.90;;;;;;;19.58;61.83;96706.41;5057574;28;20299;-65
2021/05/10 06:37:18;;;;;;;1.97;1.80;;;;;;;19.57;61.92;96718.25;5062606;28;20258;-66
2021/05/10 06:39:46;;;;;;;2.57;1.90;;;;;;;19.57;61.98;96717.44;5066844;28;20257;-66
2021/05/10 06:42:12;;;;;;;3.93;1.97;;;;;;;19.56;62.12;96714.00;5059207;28;20244;-66
2021/05/10 06:44:38;;;;;;;2.60;1.90;;;;;;;19.56;62.09;96716.56;5056367;28;20224;-66
2021/05/10 06:47:04;;;;;;;2.27;1.87;;;;;;;19.57;61.98;96709.78;5067389;28;20240;-66
2021/05/10 06:49:30;;;;;;;1.97;1.77;;;;;;;19.55;61.83;96697.00;5066011;28;20303;-66
2021/05/10 06:51:56;;;;;;;3.77;2.00;;;;;;;19.57;61.88;96699.59;5059637;28;20291;-66
2021/05/10 06:54:22;;;;;;;3.30;2.00;;;;;;;19.55;60.31;96712.28;5065279;28;20311;-66
2021/05/10 06:56:48;;;;;;;4.23;2.00;;;;;;;19.56;60.76;96708.03;5063400;28;20216;-66
2021/05/10 06:59:14;;;;;;;2.00;1.80;;;;;;;19.57;61.24;96700.44;5057872;28;20231;-65
2021/05/10 07:01:40;;;;;;;3.53;2.07;;;;;;;19.57;61.25;96709.78;5064532;28;20287;-66
2021/05/10 07:04:06;;;;;;;10.07;1.80;;;;;;;19.57;61.59;96710.63;5057338;28;20280;-66
2021/05/10 07:06:33;;;;;;;5.63;1.90;;;;;;;19.58;61.49;96708.94;5059462;28;20220;-66
2021/05/10 07:08:59;;;;;;;4.07;1.97;;;;;;;19.59;61.66;96724.28;5057421;28;20605;-66
2021/05/10 07:11:25;;;;;;;7.50;1.93;;;;;;;19.59;61.62;96719.19;5059151;28;20201;-66
2021/05/10 07:13:51;;;;;;;4.73;2.10;;;;;;;19.59;61.50;96729.38;5060713;28;20736;-66
2021/05/10 07:16:17;;;;;;;1.73;1.60;;;;;;;19.04;61.53;96621.81;5095325;22;20230;-65
2021/05/10 07:18:43;;;;;;;2.73;1.80;;;;;;;18.97;61.61;96617.41;5051773;28;20685;-66
2021/05/10 07:21:10;;;;;;;2.17;1.60;;;;;;;19.44;61.19;96700.09;5074937;28;20192;-65
2021/05/10 07:23:36;;;;;;;3.10;2.20;;;;;;;19.50;61.48;96723.19;5085865;28;20283;-63
2021/05/10 07:26:02;;;;;;;1.83;1.73;;;;;;;19.59;61.65;96741.25;5079568;28;20229;-65
2021/05/10 07:28:28;;;;;;;3.67;1.90;;;;;;;19.60;61.42;96748.09;5079863;28;20215;-66
2021/05/10 07:30:55;;;;;;;5.83;2.00;;;;;;;19.44;61.43;96721.34;5072523;28;20204;-67
2021/05/10 07:33:21;;;;;;;2.97;2.00;;;;;;;19.46;61.45;96718.84;5084744;28;20235;-66
2021/05/10 07:35:47;;;;;;;2.30;1.90;;;;;;;19.45;61.28;96712.03;5071956;28;20219;-66
2021/05/10 07:38:13;;;;;;;2.73;1.80;;;;;;;18.90;61.52;96620.63;5069787;28;20231;-66
2021/05/10 07:40:39;;;;;;;2.73;2.03;;;;;;;19.09;61.57;96650.81;5066242;28;20644;-65
2021/05/10 07:43:05;;;;;;;4.03;1.90;;;;;;;18.62;61.85;96568.97;5071774;28;20260;-63
2021/05/10 07:45:32;;;;;;;3.87;1.97;;;;;;;19.45;61.92;96704.38;5072181;28;20250;-66
2021/05/10 07:47:58;;;;;;;3.23;1.70;;;;;;;19.37;61.63;96688.91;5072278;28;20882;-66
2021/05/10 07:50:25;;;;;;;2.03;1.60;;;;;;;19.46;61.75;96695.91;5080961;28;20223;-66
2021/05/10 07:52:51;;;;;;;2.80;1.60;;;;;;;19.46;61.71;96694.22;5075829;28;20598;-66
2021/05/10 07:55:18;;;;;;;2.23;2.03;;;;;;;19.34;61.62;96672.69;5070805;28;20282;-65
2021/05/10 07:57:45;;;;;;;4.23;1.90;;;;;;;19.46;61.70;96693.38;5081861;28;20273;-66
2021/05/10 08:00:19;;;;;;;2.17;1.80;;;;;;;19.48;61.55;96692.56;5072322;28;20223;-64
2021/05/10 08:02:46;;;;;;;4.70;1.90;;;;;;;19.10;61.50;96629.59;5081602;28;20203;-65
2021/05/10 08:05:13;;;;;;;1.77;1.67;;;;;;;19.42;61.45;96681.38;5071665;28;20211;-67
2021/05/10 08:07:39;;;;;;;2.07;1.70;;;;;;;19.49;61.36;96690.88;5069088;28;20295;-66
2021/05/10 08:10:06;;;;;;;1.97;1.57;;;;;;;19.47;61.55;96680.66;5071738;28;20227;-65
2021/05/10 08:12:32;;;;;;;1.63;1.53;;;;;;;19.46;61.46;96689.13;5069906;28;20223;-64
2021/05/10 08:14:59;;;;;;;1.87;1.70;;;;;;;19.39;61.61;96677.06;5082291;28;20590;-65
2021/05/10 08:17:26;;;;;;;3.17;2.00;;;;;;;19.35;61.49;96666.75;5080154;28;20318;-64
2021/05/10 08:19:52;;;;;;;5.63;1.60;;;;;;;19.48;61.67;96678.97;5073827;28;20196;-65
2021/05/10 08:22:18;;;;;;;5.43;1.80;;;;;;;19.60;61.76;96695.41;5070483;28;20223;-66
2021/05/10 08:24:44;;;;;;;1.87;1.67;;;;;;;19.03;61.58;96598.84;5085374;28;20286;-65
2021/05/10 08:27:10;;;;;;;2.03;1.53;;;;;;;19.61;61.64;96702.25;5082376;28;20234;-66
2021/05/10 08:29:36;;;;;;;2.07;1.90;;;;;;;19.59;61.75;96695.38;5084484;28;20249;-65
2021/05/10 08:32:02;;;;;;;2.53;1.70;;;;;;;19.00;61.62;96592.00;5080130;28;20576;-65
2021/05/10 08:34:29;;;;;;;2.00;1.80;;;;;;;19.61;61.61;96696.28;5074366;28;20305;-65
2021/05/10 08:36:55;;;;;;;1.87;1.60;;;;;;;19.60;62.02;96692.84;5081075;28;20250;-65
2021/05/10 08:39:21;;;;;;;3.00;1.97;;;;;;;19.60;61.73;96690.31;5079602;28;20455;-65
2021/05/10 08:41:48;;;;;;;2.83;1.70;;;;;;;19.46;61.73;96678.06;5078697;28;20206;-65
2021/05/10 08:44:14;;;;;;;1.80;1.70;;;;;;;19.45;61.73;96664.47;5055009;28;20696;-65
2021/05/10 08:46:41;;;;;;;3.00;1.80;;;;;;;19.60;61.91;96690.31;5087101;28;20220;-65
2021/05/10 08:49:07;;;;;;;1.83;1.60;;;;;;;19.61;61.74;96693.72;5084888;28;20192;-66
2021/05/10 08:51:34;;;;;;;1.90;1.70;;;;;;;19.49;61.68;96660.31;5089872;28;20211;-65
2021/05/10 08:54:00;;;;;;;1.87;1.60;;;;;;;19.45;61.88;96659.38;5087109;28;20298;-66
2021/05/10 08:56:27;;;;;;;1.97;1.50;;;;;;;19.47;61.63;96661.94;5083064;28;20263;-66
2021/05/10 08:58:53;;;;;;;1.73;1.63;;;;;;;19.61;61.63;96689.50;5079219;28;20200;-65
2021/05/10 09:01:22;;;;;;;3.27;1.77;;;;;;;19.53;61.42;96669.75;5086587;28;20223;-66
2021/05/10 09:03:50;;;;;;;1.70;1.60;;;;;;;19.58;61.61;96688.56;5088924;28;20256;-66
2021/05/10 09:06:19;;;;;;;2.67;1.70;;;;;;;19.04;61.69;96585.31;5086108;28;20255;-64
2021/05/10 09:08:49;;;;;;;1.60;1.50;;;;;;;19.10;61.63;96593.94;5083675;28;20229;-63
2021/05/10 09:11:16;;;;;;;1.67;1.47;;;;;;;19.39;61.70;96643.09;5060028;28;20224;-65
2021/05/10 09:13:45;;;;;;;1.90;1.80;;;;;;;19.60;61.58;96674.16;5072531;28;20752;-65
2021/05/10 09:16:13;;;;;;;2.13;1.70;;;;;;;19.03;61.75;96574.25;5081852;28;20250;-65
2021/05/10 09:18:40;;;;;;;1.97;1.77;;;;;;;19.00;61.76;96564.00;5082757;28;20959;-65
2021/05/10 09:21:17;;;;;;;2.00;1.60;;;;;;;19.23;61.82;96592.56;5059144;28;20224;-64
2021/05/10 09:24:02;;;;;;;3.10;1.77;;;;;;;19.59;61.86;96658.00;5068189;28;20228;-66
2021/05/10 09:26:33;;;;;;;1.93;1.60;;;;;;;19.02;61.63;96558.94;5079908;28;20305;-65
2021/05/10 09:28:59;;;;;;;3.63;1.67;;;;;;;19.44;61.89;96629.63;5068406;28;20236;-66
2021/05/10 09:31:26;;;;;;;1.80;1.70;;;;;;;19.52;62.01;96634.91;5088213;28;20736;-65
2021/05/10 09:33:52;;;;;;;4.83;1.87;;;;;;;18.69;62.11;96495.38;5082153;28;20219;-66
2021/05/10 09:36:38;;;;;;;2.17;1.77;;;;;;;19.58;62.19;96648.66;5075124;28;20293;-66
2021/05/10 09:39:28;;;;;;;2.30;1.77;;;;;;;19.58;62.21;96648.66;5083382;28;20196;-66
2021/05/10 09:42:02;;;;;;;3.80;2.50;;;;;;;19.45;62.28;96622.84;5080924;28;20191;-66
2021/05/10 09:44:42;;;;;;;2.10;1.90;;;;;;;19.59;62.51;96646.94;5084000;28;20222;-67
2021/05/10 09:47:08;;;;;;;2.73;2.30;;;;;;;19.09;62.43;96558.25;5058026;28;20251;-67
2021/05/10 09:49:48;;;;;;;3.10;2.17;;;;;;;19.20;62.53;96583.16;5061012;28;20692;-66
2021/05/10 09:52:21;;;;;;;2.70;2.10;;;;;;;19.60;62.33;96656.34;5074892;28;20191;-65
2021/05/10 09:54:57;;;;;;;2.47;1.90;;;;;;;19.61;62.22;96661.47;5084766;28;20306;-66
2021/05/10 09:57:27;;;;;;;2.00;1.83;;;;;;;19.53;62.27;96644.25;5064827;28;20235;-66
2021/05/10 10:00:16;;;;;;;2.40;2.20;;;;;;;19.62;62.32;96663.19;5083373;28;20199;-66
2021/05/10 10:02:42;;;;;;;4.57;2.20;;;;;;;19.37;62.13;96622.69;5069752;28;20224;-65
2021/05/10 10:05:10;;;;;;;2.47;1.90;;;;;;;19.49;62.33;96647.56;5057772;28;20282;-66
2021/05/10 10:07:40;;;;;;;5.33;2.00;;;;;;;19.04;62.36;96564.94;5084710;28;20228;-66
2021/05/10 10:10:07;;;;;;;2.07;1.87;;;;;;;19.19;62.23;96590.78;5074341;28;20200;-65
2021/05/10 10:12:33;;;;;;;2.73;1.80;;;;;;;19.35;62.31;96629.41;5081136;28;20230;-65
2021/05/10 10:14:59;;;;;;;2.10;1.90;;;;;;;19.47;62.26;96651.75;5068058;28;20247;-64
2021/05/10 10:17:26;;;;;;;2.20;2.00;;;;;;;19.61;62.40;96669.13;5088348;28;20288;-67
2021/05/10 10:19:56;;;;;;;2.50;2.00;;;;;;;19.61;62.19;96670.78;5070949;28;20211;-67
2021/05/10 10:22:22;;;;;;;2.30;1.97;;;;;;;19.32;61.90;96615.72;5073242;28;20227;-66
2021/05/10 10:24:49;;;;;;;2.40;2.10;;;;;;;19.47;62.36;96644.13;5088447;28;20187;-64
2021/05/10 10:27:35;;;;;;;2.53;1.87;;;;;;;19.31;62.27;96606.38;5081198;28;20231;-67
2021/05/10 10:30:01;;;;;;;2.43;1.80;;;;;;;19.61;61.92;96660.59;5088018;28;20282;-66
2021/05/10 10:32:27;;;;;;;2.97;2.00;;;;;;;19.61;62.72;96655.50;5081060;28;20196;-66
2021/05/10 10:34:54;;;;;;;4.07;1.80;;;;;;;19.44;62.08;96624.53;5067830;28;20716;-67
2021/05/10 10:37:20;;;;;;;2.23;2.03;;;;;;;19.46;62.63;96630.53;5088644;28;20701;-67
2021/05/10 10:39:50;;;;;;;2.10;1.90;;;;;;;19.46;62.39;96629.66;5072783;28;20200;-66
2021/05/10 10:42:30;;;;;;;2.17;1.93;;;;;;;19.61;62.09;96651.28;5073439;28;20200;-67
2021/05/10 10:44:58;;;;;;;1.90;1.80;;;;;;;19.03;62.23;96545.38;5058426;28;20200;-68
2021/05/10 10:47:47;;;;;;;2.40;1.97;;;;;;;19.60;62.03;96646.97;5063103;28;20222;-66
2021/05/10 10:50:14;;;;;;;3.07;2.10;;;;;;;19.62;62.17;96652.09;5082072;28;20249;-68
2021/05/10 10:52:50;;;;;;;2.07;1.93;;;;;;;19.61;62.22;96648.72;5083573;28;20250;-67
2021/05/10 10:55:27;;;;;;;2.20;2.00;;;;;;;19.61;62.23;96646.16;5086025;28;20226;-64
2021/05/10 10:57:54;;;;;;;2.00;1.80;;;;;;;19.07;62.22;96559.94;5080687;28;20203;-67
2021/05/10 11:00:20;;;;;;;2.90;1.80;;;;;;;19.10;62.02;96568.47;5081538;28;20242;-66
2021/05/10 11:02:54;;;;;;;2.30;2.10;;;;;;;19.48;62.34;96635.66;5056294;28;20257;-65
2021/05/10 11:05:22;;;;;;;2.67;1.73;;;;;;;19.38;62.34;96621.84;5071480;28;20350;-68
2021/05/10 11:08:03;;;;;;;1.87;1.77;;;;;;;19.60;62.38;96657.16;5069648;28;20224;-67
2021/05/10 11:10:47;;;;;;;1.73;1.57;;;;;;;19.61;62.16;96660.59;5082045;28;20254;-67
2021/05/10 11:13:25;;;;;;;2.20;2.00;;;;;;;19.60;62.18;96662.28;5082069;28;20216;-66
2021/05/10 11:16:01;;;;;;;2.53;1.80;;;;;;;19.41;62.15;96624.47;5078165;28;20249;-68
2021/05/10 11:18:52;;;;;;;2.33;1.80;;;;;;;19.61;62.41;96652.94;5071607;28;20636;-68
2021/05/10 11:21:21;;;;;;;3.30;1.90;;;;;;;19.39;62.39;96620.16;5083604;28;20258;-67
2021/05/10 11:23:50;;;;;;;1.90;1.80;;;;;;;19.60;62.36;96664.81;5082357;28;20191;-64
2021/05/10 11:26:36;;;;;;;2.07;1.90;;;;;;;19.24;62.33;96605.31;5082247;28;20216;-67
2021/05/10 11:29:04;;;;;;;2.20;2.00;;;;;;;19.60;62.38;96661.44;5077068;28;20203;-67
2021/05/10 11:31:31;;;;;;;2.10;1.90;;;;;;;19.38;62.30;96616.75;5081144;28;20231;-66
2021/05/10 11:33:57;;;;;;;1.80;1.70;;;;;;;19.60;62.34;96664.81;5082764;28;20298;-66
2021/05/10 11:36:27;;;;;;;2.93;1.80;;;;;;;19.61;62.00;96674.22;5082269;28;20224;-67
2021/05/10 11:39:05;;;;;;;2.10;1.80;;;;;;;19.61;62.35;96666.56;5069873;28;20200;-67
2021/05/10 11:41:35;;;;;;;1.70;1.60;;;;;;;19.61;62.38;96655.50;5058914;28;20235;-67
2021/05/10 11:44:02;;;;;;;2.70;1.60;;;;;;;19.52;62.16;96635.78;5080011;28;20235;-67
2021/05/10 11:46:39;;;;;;;1.87;1.77;;;;;;;19.53;62.20;96629.84;5085374;28;20251;-66